sensor_id;sensor_type;location;lat;lon;timestamp;pressure;altitude;pressure_sealevel;temperature;humidity
49947;BME280;35839;48.662;13.300;2023-12-14T04:40:53;96491.75;;;4.15;100.00
49947;BME280;35839;48.662;13.300;2023-12-14T04:43:18;96501.13;;;4.07;100.00
49947;BME280;35839;48.662;13.300;2023-12-14T04:45:44;96492.44;;;4.17;100.00
49947;BME280;35839;48.662;13.300;2023-12-14T04:48:09;96505.47;;;4.06;100.00
49947;BME280;35839;48.662;13.300;2023-12-14T04:50:34;96504.13;;;4.12;100.00
49947;BME280;35839;48.662;13.300;2023-12-14T04:53:00;96511.41;;;4.28;100.00
49947;BME280;35839;48.662;13.300;2023-12-14T04:55:25;96513.03;;;4.29;100.00
49947;BME280;35839;48.662;13.300;2023-12-14T04:57:51;96522.34;;;4.31;100.00
49947;BME280;35839;48.662;13.300;2023-12-14T05:00:16;96522.78;;;4.46;100.00
49947;BME280;35839;48.662;13.300;2023-12-14T05:02:46;96525.00;;;4.60;100.00
49947;BME280;35839;48.662;13.300;2023-12-14T05:05:13;96529.09;;;4.63;100.00
49947;BME280;35839;48.662;13.300;2023-12-14T05:07:38;96526.38;;;4.64;100.00
49947;BME280;35839;48.662;13.300;2023-12-14T05:10:04;96532.94;;;4.78;100.00
49947;BME280;35839;48.662;13.300;2023-12-14T05:12:29;96535.94;;;4.93;100.00
49947;BME280;35839;48.662;13.300;2023-12-14T05:14:56;96546.84;;;4.87;100.00
49947;BME280;35839;48.662;13.300;2023-12-14T05:17:22;96544.94;;;4.89;100.00
49947;BME280;35839;48.662;13.300;2023-12-14T05:19:47;96551.22;;;4.96;100.00
49947;BME280;35839;48.662;13.300;2023-12-14T05:22:13;96551.50;;;4.93;100.00
49947;BME280;35839;48.662;13.300;2023-12-14T05:24:38;96555.06;;;5.12;100.00
49947;BME280;35839;48.662;13.300;2023-12-14T05:27:04;96563.53;;;5.33;100.00
49947;BME280;35839;48.662;13.300;2023-12-14T05:29:30;96569.03;;;5.20;100.00
49947;BME280;35839;48.662;13.300;2023-12-14T05:31:56;96567.94;;;5.23;100.00
49947;BME280;35839;48.662;13.300;2023-12-14T05:34:22;96572.31;;;5.22;100.00
49947;BME280;35839;48.662;13.300;2023-12-14T05:36:47;96581.31;;;5.28;100.00
49947;BME280;35839;48.662;13.300;2023-12-14T05:39:13;96591.00;;;5.06;100.00
49947;BME280;35839;48.662;13.300;2023-12-14T05:41:40;96584.59;;;5.11;100.00
49947;BME280;35839;48.662;13.300;2023-12-14T05:44:06;96589.78;;;5.20;100.00
49947;BME280;35839;48.662;13.300;2023-12-14T05:46:31;96596.06;;;5.18;100.00
49947;BME280;35839;48.662;13.300;2023-12-14T05:48:57;96596.59;;;5.21;100.00
49947;BME280;35839;48.662;13.300;2023-12-14T05:51:32;96604.25;;;5.23;100.00
49947;BME280;35839;48.662;13.300;2023-12-14T05:53:58;96606.97;;;5.31;100.00
49947;BME280;35839;48.662;13.300;2023-12-14T05:56:26;96620.13;;;5.39;100.00
49947;BME280;35839;48.662;13.300;2023-12-14T05:58:52;96615.59;;;5.41;100.00
49947;BME280;35839;48.662;13.300;2023-12-14T06:01:17;96621.34;;;5.45;100.00
49947;BME280;35839;48.662;13.300;2023-12-14T06:03:43;96624.50;;;5.48;100.00
49947;BME280;35839;48.662;13.300;2023-12-14T06:06:09;96632.81;;;5.42;100.00
49947;BME280;35839;48.662;13.300;2023-12-14T06:08:34;96640.59;;;5.42;100.00
49947;BME280;35839;48.662;13.300;2023-12-14T06:11:00;96647.31;;;5.35;100.00
49947;BME280;35839;48.662;13.300;2023-12-14T06:13:25;96651.78;;;5.23;100.00
49947;BME280;35839;48.662;13.300;2023-12-14T06:15:50;96652.63;;;5.34;100.00
49947;BME280;35839;48.662;13.300;2023-12-14T06:18:16;96657.97;;;5.32;100.00
49947;BME280;35839;48.662;13.300;2023-12-14T06:20:41;96657.97;;;5.42;100.00
49947;BME280;35839;48.662;13.300;2023-12-14T06:23:07;96671.34;;;5.37;100.00
49947;BME280;35839;48.662;13.300;2023-12-14T06:25:32;96670.66;;;5.35;100.00
49947;BME280;35839;48.662;13.300;2023-12-14T06:27:57;96675.56;;;5.38;100.00
49947;BME280;35839;48.662;13.300;2023-12-14T06:30:23;96676.66;;;5.26;100.00
49947;BME280;35839;48.662;13.300;2023-12-14T06:32:49;96680.50;;;5.32;100.00
49947;BME280;35839;48.662;13.300;2023-12-14T06:35:14;96691.72;;;5.32;100.00
49947;BME280;35839;48.662;13.300;2023-12-14T06:37:40;96685.97;;;5.38;100.00
49947;BME280;35839;48.662;13.300;2023-12-14T06:40:08;96696.22;;;5.40;100.00
49947;BME280;35839;48.662;13.300;2023-12-14T06:42:33;96690.91;;;5.32;100.00
49947;BME280;35839;48.662;13.300;2023-12-14T06:45:01;96703.47;;;5.36;100.00
49947;BME280;35839;48.662;13.300;2023-12-14T06:47:27;96703.88;;;5.41;100.00
49947;BME280;35839;48.662;13.300;2023-12-14T06:49:53;96711.00;;;5.49;100.00
49947;BME280;35839;48.662;13.300;2023-12-14T06:52:18;96708.00;;;5.54;100.00
49947;BME280;35839;48.662;13.300;2023-12-14T06:54:44;96718.50;;;5.52;100.00
49947;BME280;35839;48.662;13.300;2023-12-14T06:57:09;96727.97;;;5.53;100.00
49947;BME280;35839;48.662;13.300;2023-12-14T06:59:34;96728.88;;;5.52;100.00
49947;BME280;35839;48.662;13.300;2023-12-14T07:01:59;96733.00;;;5.55;100.00
49947;BME280;35839;48.662;13.300;2023-12-14T07:04:25;96741.47;;;5.57;100.00
49947;BME280;35839;48.662;13.300;2023-12-14T07:06:51;96743.38;;;5.55;100.00
49947;BME280;35839;48.662;13.300;2023-12-14T07:09:17;96748.06;;;5.61;100.00
49947;BME280;35839;48.662;13.300;2023-12-14T07:11:43;96756.25;;;5.66;100.00
49947;BME280;35839;48.662;13.300;2023-12-14T07:14:08;96762.53;;;5.73;100.00
49947;BME280;35839;48.662;13.300;2023-12-14T07:16:33;96752.97;;;5.64;100.00
49947;BME280;35839;48.662;13.300;2023-12-14T07:18:59;96759.81;;;5.65;100.00
49947;BME280;35839;48.662;13.300;2023-12-14T07:21:24;96764.75;;;5.68;100.00
49947;BME280;35839;48.662;13.300;2023-12-14T07:23:49;96770.50;;;5.62;100.00
49947;BME280;35839;48.662;13.300;2023-12-14T07:26:15;96775.13;;;5.68;100.00
49947;BME280;35839;48.662;13.300;2023-12-14T07:28:42;96777.16;;;5.55;100.00
49947;BME280;35839;48.662;13.300;2023-12-14T07:31:08;96788.09;;;5.48;100.00
49947;BME280;35839;48.662;13.300;2023-12-14T07:33:33;96786.31;;;5.59;100.00
49947;BME280;35839;48.662;13.300;2023-12-14T07:35:58;96793.19;;;5.69;100.00
49947;BME280;35839;48.662;13.300;2023-12-14T07:38:23;96794.28;;;5.67;100.00
49947;BME280;35839;48.662;13.300;2023-12-14T07:40:49;96800.00;;;5.61;100.00
49947;BME280;35839;48.662;13.300;2023-12-14T07:43:15;96806.84;;;5.62;100.00
49947;BME280;35839;48.662;13.300;2023-12-14T07:45:40;96803.03;;;5.76;100.00
49947;BME280;35839;48.662;13.300;2023-12-14T07:48:06;96807.09;;;5.68;100.00
49947;BME280;35839;48.662;13.300;2023-12-14T07:50:31;96817.28;;;5.81;100.00
49947;BME280;35839;48.662;13.300;2023-12-14T07:52:56;96820.94;;;5.69;100.00
49947;BME280;35839;48.662;13.300;2023-12-14T07:55:22;96820.81;;;5.80;100.00
49947;BME280;35839;48.662;13.300;2023-12-14T07:57:47;96842.13;;;5.74;100.00
49947;BME280;35839;48.662;13.300;2023-12-14T08:00:15;96836.41;;;5.80;100.00
49947;BME280;35839;48.662;13.300;2023-12-14T08:02:40;96838.16;;;5.70;100.00
49947;BME280;35839;48.662;13.300;2023-12-14T08:05:07;96840.47;;;5.73;100.00
49947;BME280;35839;48.662;13.300;2023-12-14T08:07:32;96847.56;;;5.61;100.00
49947;BME280;35839;48.662;13.300;2023-12-14T08:09:58;96849.22;;;5.62;100.00
49947;BME280;35839;48.662;13.300;2023-12-14T08:12:24;96854.97;;;5.66;100.00
49947;BME280;35839;48.662;13.300;2023-12-14T08:14:50;96855.38;;;5.71;100.00
49947;BME280;35839;48.662;13.300;2023-12-14T08:17:15;96867.72;;;5.79;100.00
49947;BME280;35839;48.662;13.300;2023-12-14T08:19:41;96867.56;;;5.80;100.00
49947;BME280;35839;48.662;13.300;2023-12-14T08:22:07;96873.91;;;5.87;100.00
49947;BME280;35839;48.662;13.300;2023-12-14T08:24:36;96874.56;;;5.80;100.00
49947;BME280;35839;48.662;13.300;2023-12-14T08:27:01;96880.63;;;5.90;100.00
49947;BME280;35839;48.662;13.300;2023-12-14T08:29:26;96887.06;;;5.96;100.00
49947;BME280;35839;48.662;13.300;2023-12-14T08:31:52;96890.56;;;5.85;100.00
49947;BME280;35839;48.662;13.300;2023-12-14T08:34:17;96895.63;;;5.86;100.00
49947;BME280;35839;48.662;13.300;2023-12-14T08:36:42;96912.19;;;5.85;100.00
49947;BME280;35839;48.662;13.300;2023-12-14T08:39:07;96914.94;;;5.94;100.00
49947;BME280;35839;48.662;13.300;2023-12-14T08:41:33;96915.53;;;5.97;100.00
49947;BME280;35839;48.662;13.300;2023-12-14T08:43:58;96925.38;;;6.03;100.00
49947;BME280;35839;48.662;13.300;2023-12-14T08:46:23;96926.06;;;5.96;100.00
49947;BME280;35839;48.662;13.300;2023-12-14T08:48:49;96931.94;;;5.98;100.00
49947;BME280;35839;48.662;13.300;2023-12-14T08:51:14;96931.69;;;6.10;100.00
49947;BME280;35839;48.662;13.300;2023-12-14T08:53:39;96940.06;;;6.14;100.00
49947;BME280;35839;48.662;13.300;2023-12-14T08:56:05;96947.44;;;6.09;100.00
49947;BME280;35839;48.662;13.300;2023-12-14T08:58:31;96947.59;;;6.17;100.00
49947;BME280;35839;48.662;13.300;2023-12-14T09:00:56;96953.03;;;6.04;100.00
49947;BME280;35839;48.662;13.300;2023-12-14T09:03:21;96956.06;;;6.19;100.00
49947;BME280;35839;48.662;13.300;2023-12-14T09:05:47;96961.56;;;6.26;100.00
49947;BME280;35839;48.662;13.300;2023-12-14T09:08:12;96964.59;;;6.31;100.00
49947;BME280;35839;48.662;13.300;2023-12-14T09:10:38;96968.00;;;6.31;100.00
49947;BME280;35839;48.662;13.300;2023-12-14T09:13:04;96973.66;;;6.46;100.00
49947;BME280;35839;48.662;13.300;2023-12-14T09:15:33;96979.28;;;6.61;100.00
49947;BME280;35839;48.662;13.300;2023-12-14T09:17:58;96978.97;;;6.35;100.00
49947;BME280;35839;48.662;13.300;2023-12-14T09:20:24;96986.78;;;6.45;100.00
49947;BME280;35839;48.662;13.300;2023-12-14T09:22:50;96986.66;;;6.37;100.00
49947;BME280;35839;48.662;13.300;2023-12-14T09:25:15;96980.34;;;6.29;100.00
49947;BME280;35839;48.662;13.300;2023-12-14T09:27:41;96988.28;;;6.47;100.00
49947;BME280;35839;48.662;13.300;2023-12-14T09:30:07;96988.69;;;6.33;100.00
49947;BME280;35839;48.662;13.300;2023-12-14T09:32:33;96994.47;;;6.56;100.00
49947;BME280;35839;48.662;13.300;2023-12-14T09:34:58;96994.75;;;6.53;100.00
49947;BME280;35839;48.662;13.300;2023-12-14T09:37:23;96988.47;;;6.56;100.00
49947;BME280;35839;48.662;13.300;2023-12-14T09:39:49;97009.41;;;6.73;100.00
49947;BME280;35839;48.662;13.300;2023-12-14T09:42:16;97009.38;;;6.44;100.00
49947;BME280;35839;48.662;13.300;2023-12-14T09:44:43;97011.72;;;6.47;100.00
49947;BME280;35839;48.662;13.300;2023-12-14T09:47:08;97011.66;;;6.28;100.00
49947;BME280;35839;48.662;13.300;2023-12-14T09:49:35;97020.56;;;6.35;100.00
49947;BME280;35839;48.662;13.300;2023-12-14T09:52:01;97011.69;;;6.38;100.00
49947;BME280;35839;48.662;13.300;2023-12-14T09:54:27;97018.41;;;6.50;100.00
49947;BME280;35839;48.662;13.300;2023-12-14T09:56:52;97022.09;;;6.47;100.00
49947;BME280;35839;48.662;13.300;2023-12-14T09:59:21;97019.69;;;6.56;100.00
49947;BME280;35839;48.662;13.300;2023-12-14T10:01:46;97023.47;;;6.42;100.00
49947;BME280;35839;48.662;13.300;2023-12-14T10:04:14;97021.56;;;6.44;100.00
49947;BME280;35839;48.662;13.300;2023-12-14T10:06:41;97026.31;;;6.29;100.00
49947;BME280;35839;48.662;13.300;2023-12-14T10:09:07;97017.41;;;6.31;100.00
49947;BME280;35839;48.662;13.300;2023-12-14T10:11:35;97027.00;;;6.41;100.00
49947;BME280;35839;48.662;13.300;2023-12-14T10:14:01;97021.66;;;6.32;100.00
49947;BME280;35839;48.662;13.300;2023-12-14T10:16:31;97034.66;;;6.32;100.00
49947;BME280;35839;48.662;13.300;2023-12-14T10:18:58;97046.16;;;6.30;100.00
49947;BME280;35839;48.662;13.300;2023-12-14T10:21:26;97047.19;;;6.18;100.00
49947;BME280;35839;48.662;13.300;2023-12-14T10:23:54;97044.44;;;6.09;100.00
49947;BME280;35839;48.662;13.300;2023-12-14T10:26:22;97047.16;;;6.08;100.00
49947;BME280;35839;48.662;13.300;2023-12-14T10:28:48;97050.38;;;6.21;100.00
49947;BME280;35839;48.662;13.300;2023-12-14T10:31:14;97050.44;;;6.10;100.00
49947;BME280;35839;48.662;13.300;2023-12-14T10:33:40;97055.13;;;6.16;100.00
49947;BME280;35839;48.662;13.300;2023-12-14T10:36:06;97050.16;;;6.34;100.00
49947;BME280;35839;48.662;13.300;2023-12-14T10:38:34;97054.34;;;6.25;100.00
49947;BME280;35839;48.662;13.300;2023-12-14T10:41:02;97069.19;;;6.44;100.00
49947;BME280;35839;48.662;13.300;2023-12-14T10:43:28;97069.22;;;6.54;100.00
49947;BME280;35839;48.662;13.300;2023-12-14T10:45:53;97068.56;;;6.62;100.00
49947;BME280;35839;48.662;13.300;2023-12-14T10:48:19;97075.19;;;6.35;100.00
49947;BME280;35839;48.662;13.300;2023-12-14T10:50:46;97074.41;;;6.44;100.00
49947;BME280;35839;48.662;13.300;2023-12-14T10:53:13;97076.03;;;6.45;100.00
49947;BME280;35839;48.662;13.300;2023-12-14T10:55:44;97071.94;;;6.43;100.00
49947;BME280;35839;48.662;13.300;2023-12-14T10:58:10;97080.75;;;6.71;100.00
49947;BME280;35839;48.662;13.300;2023-12-14T11:00:37;97075.31;;;6.74;100.00
49947;BME280;35839;48.662;13.300;2023-12-14T11:03:04;97088.75;;;6.89;100.00
49947;BME280;35839;48.662;13.300;2023-12-14T11:05:32;97089.34;;;7.02;100.00
49947;BME280;35839;48.662;13.300;2023-12-14T11:08:02;97090.69;;;6.96;100.00
49947;BME280;35839;48.662;13.300;2023-12-14T11:10:52;97092.59;;;6.85;100.00
49947;BME280;35839;48.662;13.300;2023-12-14T11:13:26;97095.28;;;6.73;100.00
49947;BME280;35839;48.662;13.300;2023-12-14T11:15:52;97091.09;;;6.92;100.00
49947;BME280;35839;48.662;13.300;2023-12-14T11:23:44;97100.25;;;6.77;100.00
49947;BME280;35839;48.662;13.300;2023-12-14T11:26:06;97111.19;;;6.80;100.00
49947;BME280;35839;48.662;13.300;2023-12-14T11:28:34;97114.97;;;6.97;100.00
49947;BME280;35839;48.662;13.300;2023-12-14T11:31:00;97111.78;;;6.93;100.00
49947;BME280;35839;48.662;13.300;2023-12-14T11:33:27;97111.81;;;7.03;100.00
49947;BME280;35839;48.662;13.300;2023-12-14T11:35:54;97117.56;;;6.97;100.00
49947;BME280;35839;48.662;13.300;2023-12-14T11:38:19;97120.59;;;7.22;100.00
49947;BME280;35839;48.662;13.300;2023-12-14T11:40:46;97118.13;;;7.10;100.00
49947;BME280;35839;48.662;13.300;2023-12-14T11:43:13;97119.88;;;6.90;100.00
49947;BME280;35839;48.662;13.300;2023-12-14T11:45:40;97117.81;;;6.94;100.00
49947;BME280;35839;48.662;13.300;2023-12-14T11:48:07;97122.38;;;7.11;100.00
49947;BME280;35839;48.662;13.300;2023-12-14T11:50:35;97126.09;;;7.18;100.00
49947;BME280;35839;48.662;13.300;2023-12-14T11:53:01;97128.56;;;7.30;100.00
49947;BME280;35839;48.662;13.300;2023-12-14T11:55:29;97120.31;;;7.25;100.00
49947;BME280;35839;48.662;13.300;2023-12-14T11:57:55;97126.91;;;7.19;100.00
49947;BME280;35839;48.662;13.300;2023-12-14T12:00:25;97119.22;;;7.08;100.00
49947;BME280;35839;48.662;13.300;2023-12-14T12:02:51;97127.69;;;7.00;100.00
49947;BME280;35839;48.662;13.300;2023-12-14T12:05:16;97131.13;;;7.01;100.00
49947;BME280;35839;48.662;13.300;2023-12-14T12:07:44;97130.97;;;6.92;100.00
49947;BME280;35839;48.662;13.300;2023-12-14T12:10:10;97123.56;;;6.88;100.00
49947;BME280;35839;48.662;13.300;2023-12-14T12:12:36;97126.91;;;7.09;100.00
49947;BME280;35839;48.662;13.300;2023-12-14T12:15:02;97136.50;;;7.09;100.00
49947;BME280;35839;48.662;13.300;2023-12-14T12:17:27;97129.22;;;7.03;100.00
49947;BME280;35839;48.662;13.300;2023-12-14T12:19:53;97141.44;;;7.22;100.00
49947;BME280;35839;48.662;13.300;2023-12-14T12:22:18;97140.09;;;7.27;100.00
49947;BME280;35839;48.662;13.300;2023-12-14T12:24:43;97136.50;;;7.18;100.00
49947;BME280;35839;48.662;13.300;2023-12-14T12:27:09;97136.34;;;7.10;100.00
49947;BME280;35839;48.662;13.300;2023-12-14T12:29:34;97144.16;;;7.10;100.00
49947;BME280;35839;48.662;13.300;2023-12-14T12:31:59;97141.13;;;7.05;100.00
49947;BME280;35839;48.662;13.300;2023-12-14T12:34:25;97153.22;;;7.06;100.00
49947;BME280;35839;48.662;13.300;2023-12-14T12:36:50;97141.69;;;7.09;100.00
49947;BME280;35839;48.662;13.300;2023-12-14T12:39:16;97161.41;;;7.02;100.00
49947;BME280;35839;48.662;13.300;2023-12-14T12:41:42;97155.38;;;7.01;100.00
49947;BME280;35839;48.662;13.300;2023-12-14T12:44:07;97149.53;;;7.18;100.00
49947;BME280;35839;48.662;13.300;2023-12-14T12:46:37;97153.25;;;7.35;100.00
49947;BME280;35839;48.662;13.300;2023-12-14T12:49:04;97160.19;;;7.15;100.00
49947;BME280;35839;48.662;13.300;2023-12-14T12:51:30;97160.88;;;7.17;100.00
49947;BME280;35839;48.662;13.300;2023-12-14T12:53:57;97170.25;;;7.30;100.00
49947;BME280;35839;48.662;13.300;2023-12-14T12:56:24;97170.19;;;7.20;100.00
49947;BME280;35839;48.662;13.300;2023-12-14T12:58:49;97172.69;;;7.41;100.00
49947;BME280;35839;48.662;13.300;2023-12-14T13:01:17;97178.47;;;7.35;100.00
49947;BME280;35839;48.662;13.300;2023-12-14T13:03:42;97184.91;;;7.41;100.00
49947;BME280;35839;48.662;13.300;2023-12-14T13:06:08;97180.66;;;7.30;100.00
49947;BME280;35839;48.662;13.300;2023-12-14T13:08:33;97188.41;;;7.10;100.00
49947;BME280;35839;48.662;13.300;2023-12-14T13:10:59;97193.91;;;7.07;100.00
49947;BME280;35839;48.662;13.300;2023-12-14T13:13:25;97189.38;;;7.09;100.00
49947;BME280;35839;48.662;13.300;2023-12-14T13:15:50;97196.22;;;7.10;100.00
49947;BME280;35839;48.662;13.300;2023-12-14T13:18:16;97195.38;;;7.00;100.00
49947;BME280;35839;48.662;13.300;2023-12-14T13:20:42;97193.56;;;6.91;100.00
49947;BME280;35839;48.662;13.300;2023-12-14T13:23:08;97203.16;;;6.90;100.00
49947;BME280;35839;48.662;13.300;2023-12-14T13:25:33;97206.31;;;6.94;100.00
49947;BME280;35839;48.662;13.300;2023-12-14T13:27:59;97197.22;;;6.79;100.00
49947;BME280;35839;48.662;13.300;2023-12-14T13:30:24;97203.16;;;6.90;100.00
49947;BME280;35839;48.662;13.300;2023-12-14T13:32:50;97200.25;;;6.84;100.00
49947;BME280;35839;48.662;13.300;2023-12-14T13:35:15;97199.78;;;7.00;100.00
49947;BME280;35839;48.662;13.300;2023-12-14T13:37:40;97205.63;;;6.92;100.00
49947;BME280;35839;48.662;13.300;2023-12-14T13:40:07;97209.84;;;6.83;100.00
49947;BME280;35839;48.662;13.300;2023-12-14T13:42:32;97210.94;;;6.81;100.00
49947;BME280;35839;48.662;13.300;2023-12-14T13:44:57;97213.88;;;6.97;100.00
49947;BME280;35839;48.662;13.300;2023-12-14T13:47:23;97225.69;;;6.80;100.00
49947;BME280;35839;48.662;13.300;2023-12-14T13:49:48;97228.47;;;6.79;100.00
49947;BME280;35839;48.662;13.300;2023-12-14T13:52:13;97221.91;;;6.84;100.00
49947;BME280;35839;48.662;13.300;2023-12-14T13:54:38;97230.59;;;6.73;100.00
49947;BME280;35839;48.662;13.300;2023-12-14T13:57:04;97232.53;;;7.02;100.00
49947;BME280;35839;48.662;13.300;2023-12-14T13:59:29;97241.16;;;7.03;100.00
49947;BME280;35839;48.662;13.300;2023-12-14T14:01:54;97243.03;;;6.91;100.00
49947;BME280;35839;48.662;13.300;2023-12-14T14:04:20;97251.00;;;6.99;100.00
49947;BME280;35839;48.662;13.300;2023-12-14T14:06:45;97260.81;;;7.16;100.00
49947;BME280;35839;48.662;13.300;2023-12-14T14:09:11;97264.22;;;7.17;100.00
49947;BME280;35839;48.662;13.300;2023-12-14T14:11:37;97264.75;;;7.11;100.00
49947;BME280;35839;48.662;13.300;2023-12-14T14:14:02;97272.59;;;6.90;100.00
49947;BME280;35839;48.662;13.300;2023-12-14T14:16:29;97274.81;;;6.94;100.00
49947;BME280;35839;48.662;13.300;2023-12-14T14:18:54;97279.41;;;6.81;100.00
49947;BME280;35839;48.662;13.300;2023-12-14T14:21:20;97286.56;;;6.89;100.00
49947;BME280;35839;48.662;13.300;2023-12-14T14:23:45;97300.41;;;6.68;100.00
49947;BME280;35839;48.662;13.300;2023-12-14T14:26:10;97295.47;;;6.65;100.00
49947;BME280;35839;48.662;13.300;2023-12-14T14:28:36;97302.97;;;6.80;100.00
49947;BME280;35839;48.662;13.300;2023-12-14T14:31:01;97311.19;;;6.85;100.00
49947;BME280;35839;48.662;13.300;2023-12-14T14:33:26;97304.38;;;6.84;100.00
49947;BME280;35839;48.662;13.300;2023-12-14T14:35:52;97315.84;;;6.81;100.00
49947;BME280;35839;48.662;13.300;2023-12-14T14:38:17;97312.03;;;6.85;100.00
49947;BME280;35839;48.662;13.300;2023-12-14T14:40:42;97318.31;;;6.83;100.00
49947;BME280;35839;48.662;13.300;2023-12-14T14:43:09;97320.25;;;6.81;100.00
49947;BME280;35839;48.662;13.300;2023-12-14T14:45:35;97321.28;;;6.78;100.00
49947;BME280;35839;48.662;13.300;2023-12-14T14:48:03;97330.25;;;6.64;100.00
49947;BME280;35839;48.662;13.300;2023-12-14T14:50:30;97331.53;;;6.91;100.00
49947;BME280;35839;48.662;13.300;2023-12-14T14:52:55;97339.13;;;6.83;100.00
49947;BME280;35839;48.662;13.300;2023-12-14T14:55:21;97347.25;;;6.89;100.00
49947;BME280;35839;48.662;13.300;2023-12-14T14:57:46;97350.38;;;6.83;100.00
49947;BME280;35839;48.662;13.300;2023-12-14T15:00:13;97347.91;;;6.82;100.00
49947;BME280;35839;48.662;13.300;2023-12-14T15:02:38;97355.59;;;6.62;100.00
49947;BME280;35839;48.662;13.300;2023-12-14T15:05:03;97348.38;;;6.54;100.00
49947;BME280;35839;48.662;13.300;2023-12-14T15:07:29;97356.44;;;6.30;100.00
49947;BME280;35839;48.662;13.300;2023-12-14T15:09:55;97358.94;;;6.53;100.00
49947;BME280;35839;48.662;13.300;2023-12-14T15:12:20;97373.94;;;6.82;100.00
49947;BME280;35839;48.662;13.300;2023-12-14T15:14:46;97381.31;;;6.77;100.00
49947;BME280;35839;48.662;13.300;2023-12-14T15:17:12;97379.25;;;6.80;100.00
49947;BME280;35839;48.662;13.300;2023-12-14T15:19:38;97375.94;;;6.78;100.00
49947;BME280;35839;48.662;13.300;2023-12-14T15:22:04;97377.22;;;6.63;100.00
49947;BME280;35839;48.662;13.300;2023-12-14T15:24:29;97382.53;;;6.61;100.00
49947;BME280;35839;48.662;13.300;2023-12-14T15:26:55;97387.75;;;6.61;100.00
49947;BME280;35839;48.662;13.300;2023-12-14T15:29:20;97400.31;;;6.56;100.00
49947;BME280;35839;48.662;13.300;2023-12-14T15:31:46;97402.94;;;6.77;100.00
49947;BME280;35839;48.662;13.300;2023-12-14T15:34:12;97407.81;;;6.70;100.00
49947;BME280;35839;48.662;13.300;2023-12-14T15:36:38;97398.66;;;6.55;100.00
49947;BME280;35839;48.662;13.300;2023-12-14T15:39:03;97409.41;;;6.83;100.00
49947;BME280;35839;48.662;13.300;2023-12-14T15:41:29;97415.91;;;6.56;100.00
49947;BME280;35839;48.662;13.300;2023-12-14T15:43:55;97419.41;;;6.66;100.00
49947;BME280;35839;48.662;13.300;2023-12-14T15:46:20;97418.78;;;6.53;100.00
49947;BME280;35839;48.662;13.300;2023-12-14T15:48:46;97418.19;;;6.49;100.00
49947;BME280;35839;48.662;13.300;2023-12-14T15:51:11;97432.13;;;6.60;100.00
49947;BME280;35839;48.662;13.300;2023-12-14T15:53:37;97441.94;;;6.56;100.00
49947;BME280;35839;48.662;13.300;2023-12-14T15:56:02;97430.41;;;6.38;100.00
49947;BME280;35839;48.662;13.300;2023-12-14T15:58:28;97437.44;;;6.58;100.00
49947;BME280;35839;48.662;13.300;2023-12-14T16:00:54;97441.69;;;6.59;100.00
49947;BME280;35839;48.662;13.300;2023-12-14T16:03:19;97445.00;;;6.50;100.00
49947;BME280;35839;48.662;13.300;2023-12-14T16:05:45;97444.44;;;6.46;100.00
49947;BME280;35839;48.662;13.300;2023-12-14T16:08:10;97444.00;;;6.41;100.00
49947;BME280;35839;48.662;13.300;2023-12-14T16:10:38;97452.38;;;6.33;100.00
49947;BME280;35839;48.662;13.300;2023-12-14T16:13:04;97451.47;;;6.23;100.00
49947;BME280;35839;48.662;13.300;2023-12-14T16:15:29;97463.78;;;6.21;100.00
49947;BME280;35839;48.662;13.300;2023-12-14T16:17:55;97469.44;;;6.15;100.00
49947;BME280;35839;48.662;13.300;2023-12-14T16:20:21;97471.81;;;6.29;100.00
49947;BME280;35839;48.662;13.300;2023-12-14T16:22:50;97471.22;;;6.26;100.00
49947;BME280;35839;48.662;13.300;2023-12-14T16:25:15;97481.22;;;6.42;100.00
49947;BME280;35839;48.662;13.300;2023-12-14T16:27:42;97476.03;;;6.30;100.00
49947;BME280;35839;48.662;13.300;2023-12-14T16:30:07;97486.88;;;6.47;100.00
49947;BME280;35839;48.662;13.300;2023-12-14T16:32:33;97490.41;;;6.57;100.00
49947;BME280;35839;48.662;13.300;2023-12-14T16:34:58;97506.06;;;6.46;100.00
49947;BME280;35839;48.662;13.300;2023-12-14T16:37:23;97507.09;;;6.54;100.00
49947;BME280;35839;48.662;13.300;2023-12-14T16:39:51;97504.81;;;6.72;100.00
49947;BME280;35839;48.662;13.300;2023-12-14T16:42:17;97497.28;;;6.58;100.00
49947;BME280;35839;48.662;13.300;2023-12-14T16:44:42;97507.69;;;6.47;100.00
49947;BME280;35839;48.662;13.300;2023-12-14T16:47:09;97513.16;;;6.32;100.00
49947;BME280;35839;48.662;13.300;2023-12-14T16:49:35;97508.06;;;6.42;100.00
49947;BME280;35839;48.662;13.300;2023-12-14T16:52:03;97515.75;;;6.44;100.00
49947;BME280;35839;48.662;13.300;2023-12-14T16:54:28;97523.06;;;6.39;100.00
49947;BME280;35839;48.662;13.300;2023-12-14T16:56:53;97516.94;;;6.51;100.00
49947;BME280;35839;48.662;13.300;2023-12-14T16:59:19;97522.50;;;6.24;100.00
49947;BME280;35839;48.662;13.300;2023-12-14T17:01:45;97527.00;;;6.22;100.00
49947;BME280;35839;48.662;13.300;2023-12-14T17:04:11;97539.16;;;6.32;100.00
49947;BME280;35839;48.662;13.300;2023-12-14T17:06:36;97543.66;;;6.30;100.00
49947;BME280;35839;48.662;13.300;2023-12-14T17:09:01;97535.03;;;6.41;100.00
49947;BME280;35839;48.662;13.300;2023-12-14T17:11:28;97548.13;;;6.51;100.00
49947;BME280;35839;48.662;13.300;2023-12-14T17:13:53;97548.84;;;6.42;100.00
49947;BME280;35839;48.662;13.300;2023-12-14T17:16:19;97557.91;;;6.70;100.00
49947;BME280;35839;48.662;13.300;2023-12-14T17:18:45;97555.78;;;6.75;100.00
49947;BME280;35839;48.662;13.300;2023-12-14T17:21:27;97557.56;;;6.63;100.00
49947;BME280;35839;48.662;13.300;2023-12-14T17:23:54;97556.03;;;6.72;100.00
49947;BME280;35839;48.662;13.300;2023-12-14T17:26:20;97563.47;;;6.77;100.00
49947;BME280;35839;48.662;13.300;2023-12-14T17:28:50;97562.06;;;6.72;100.00